Time;durP1;ratioP1;P1;durP2;ratioP2;P2;SDS_P1;SDS_P2;PMS_P1;PMS_P2;Temp;Humidity;BMP_temperature;BMP_pressure;BME280_temperature;BME280_humidity;BME280_pressure;Samples;Min_cycle;Max_cycle;Signal;HPM_P1;HPM_P2
2022/07/06 00:01:48;;;;;;;18.58;2.85;;;30.40;55.30;;;;;;5091114;28;20077;-72
2022/07/06 00:04:14;;;;;;;22.15;3.00;;;30.30;55.50;;;;;;5090831;28;20093;-72
2022/07/06 00:06:40;;;;;;;16.33;2.90;;;30.30;55.30;;;;;;5090850;28;20078;-72
2022/07/06 00:09:06;;;;;;;14.05;2.88;;;30.30;55.20;;;;;;5091125;28;20103;-72
2022/07/06 00:11:33;;;;;;;21.48;2.97;;;30.30;55.20;;;;;;5090961;28;20044;-72
2022/07/06 00:13:59;;;;;;;18.48;2.80;;;30.20;55.30;;;;;;5090784;28;20176;-72
2022/07/06 00:16:25;;;;;;;;;;;30.20;55.20;;;;;;5090975;28;20032;-72
2022/07/06 00:18:51;;;;;;;13.63;2.60;;;30.20;55.20;;;;;;5090962;28;19904;-72
2022/07/06 00:21:18;;;;;;;23.58;3.38;;;30.10;55.10;;;;;;5090806;28;20070;-72
2022/07/06 00:23:44;;;;;;;22.83;3.75;;;30.20;54.80;;;;;;5090530;28;20028;-71
2022/07/06 00:26:10;;;;;;;;;;;30.30;54.70;;;;;;5090945;28;20028;-72
2022/07/06 00:28:36;;;;;;;20.70;2.90;;;30.30;54.70;;;;;;5090680;28;19904;-72
2022/07/06 00:31:02;;;;;;;27.73;3.35;;;30.30;54.50;;;;;;5090807;28;20126;-72
2022/07/06 00:33:29;;;;;;;20.05;2.90;;;30.30;54.40;;;;;;5090405;28;20028;-73
2022/07/06 00:35:55;;;;;;;21.02;3.17;;;30.20;54.40;;;;;;5090459;28;20455;-71
2022/07/06 00:38:21;;;;;;;22.70;3.00;;;30.30;54.30;;;;;;5090875;28;20032;-71
2022/07/06 00:40:48;;;;;;;17.85;2.83;;;30.20;54.30;;;;;;5090459;28;20555;-73
2022/07/06 00:43:14;;;;;;;;;;;30.30;54.30;;;;;;5090680;28;20103;-72
2022/07/06 00:45:40;;;;;;;25.52;3.15;;;30.20;54.30;;;;;;5090821;28;19904;-72
2022/07/06 00:48:07;;;;;;;17.58;2.95;;;30.30;54.10;;;;;;5094368;28;20451;-72
2022/07/06 00:50:34;;;;;;;25.52;3.10;;;30.30;54.20;;;;;;5094250;28;20119;-72
2022/07/06 00:53:05;;;;;;;20.00;2.92;;;30.20;54.10;;;;;;5094602;28;20056;-72
2022/07/06 00:55:35;;;;;;;13.82;2.97;;;30.20;54.10;;;;;;5094215;28;20099;-72
2022/07/06 00:58:06;;;;;;;21.77;3.05;;;30.10;54.10;;;;;;5092733;28;20422;-72
2022/07/06 01:00:33;;;;;;;21.48;2.92;;;30.20;53.80;;;;;;5094184;28;20151;-72
2022/07/06 01:03:00;;;;;;;13.63;2.45;;;30.10;53.70;;;;;;5094178;28;20044;-72
2022/07/06 01:05:26;;;;;;;;;;;30.10;53.50;;;;;;5094472;28;20333;-72
2022/07/06 01:07:53;;;;;;;16.38;3.00;;;30.10;53.10;;;;;;5094043;28;19908;-72
2022/07/06 01:10:21;;;;;;;17.38;3.00;;;30.10;53.20;;;;;;5093798;28;20526;-72
2022/07/06 01:12:48;;;;;;;28.75;3.25;;;30.10;52.80;;;;;;5093721;28;20057;-72
2022/07/06 01:15:20;;;;;;;17.48;3.35;;;30.20;52.70;;;;;;5094087;28;20348;-72
2022/07/06 01:17:47;;;;;;;26.98;3.50;;;30.20;52.60;;;;;;5094165;28;20024;-72
2022/07/06 01:20:22;;;;;;;20.95;3.00;;;30.20;52.60;;;;;;5093681;28;20123;-72
2022/07/06 01:22:51;;;;;;;19.40;3.10;;;30.20;52.40;;;;;;5094004;28;20338;-72
2022/07/06 01:25:18;;;;;;;24.13;3.30;;;30.20;52.70;;;;;;5093535;28;20016;-73
2022/07/06 01:27:44;;;;;;;25.15;3.58;;;30.20;52.40;;;;;;5093654;28;20448;-72
2022/07/06 01:30:18;;;;;;;26.48;3.33;;;30.20;52.50;;;;;;5093880;28;20103;-73
2022/07/06 01:32:44;;;;;;;23.50;3.70;;;30.30;52.40;;;;;;5093777;28;20051;-72
2022/07/06 01:35:12;;;;;;;19.95;2.97;;;30.30;52.30;;;;;;5093641;28;20035;-72
2022/07/06 01:37:39;;;;;;;23.48;3.60;;;30.30;52.60;;;;;;5093610;28;20016;-74
2022/07/06 01:40:15;;;;;;;14.95;3.05;;;30.30;52.60;;;;;;5093689;28;20488;-72
2022/07/06 01:42:41;;;;;;;14.65;2.83;;;30.30;52.50;;;;;;5093780;28;20102;-72
2022/07/06 01:45:08;;;;;;;21.70;3.28;;;30.20;52.50;;;;;;5093241;28;20066;-72
2022/07/06 01:47:34;;;;;;;21.85;3.10;;;30.20;52.70;;;;;;5093458;28;20020;-72
2022/07/06 01:50:01;;;;;;;22.10;3.58;;;30.20;52.60;;;;;;5093495;28;20020;-72
2022/07/06 01:52:28;;;;;;;25.67;3.53;;;30.20;52.60;;;;;;5093321;28;20032;-72
2022/07/06 01:54:55;;;;;;;27.48;3.50;;;30.20;52.60;;;;;;5091586;28;20023;-72
2022/07/06 01:57:21;;;;;;;22.98;3.38;;;30.30;52.70;;;;;;5092615;28;20112;-72
2022/07/06 01:59:47;;;;;;;28.27;3.75;;;30.30;52.70;;;;;;5093028;28;20074;-72
2022/07/06 02:02:15;;;;;;;21.55;3.20;;;30.30;52.70;;;;;;5092964;28;20032;-72
2022/07/06 02:04:41;;;;;;;29.00;3.90;;;30.30;52.70;;;;;;5091444;28;20016;-73
2022/07/06 02:07:07;;;;;;;20.48;3.55;;;30.20;52.70;;;;;;5093082;28;20110;-73
2022/07/06 02:09:33;;;;;;;19.77;2.97;;;30.30;52.70;;;;;;5092610;28;20040;-73
2022/07/06 02:11:59;;;;;;;14.88;2.88;;;30.20;52.70;;;;;;5092708;28;20115;-72
2022/07/06 02:14:25;;;;;;;22.95;3.25;;;30.20;52.90;;;;;;5091143;28;20020;-73
2022/07/06 02:16:51;;;;;;;25.40;3.40;;;30.20;52.80;;;;;;5092891;28;20111;-72
2022/07/06 02:19:17;;;;;;;21.33;3.17;;;30.20;52.80;;;;;;5092576;28;20086;-73
2022/07/06 02:21:43;;;;;;;21.27;3.25;;;30.20;52.80;;;;;;5092548;28;20065;-73
2022/07/06 02:24:09;;;;;;;18.45;2.92;;;30.30;52.80;;;;;;5092431;28;20020;-72
2022/07/06 02:26:35;;;;;;;21.20;3.30;;;30.20;52.90;;;;;;5092607;28;20099;-73
2022/07/06 02:29:01;;;;;;;19.48;3.30;;;30.20;52.90;;;;;;5092320;28;20124;-73
2022/07/06 02:31:27;;;;;;;25.85;3.08;;;30.20;52.90;;;;;;5092164;28;20057;-73
2022/07/06 02:33:53;;;;;;;28.02;3.20;;;30.20;52.90;;;;;;5092290;28;20020;-72
2022/07/06 02:36:19;;;;;;;18.98;3.63;;;30.10;52.80;;;;;;5092277;28;20054;-72
2022/07/06 02:38:45;;;;;;;18.58;2.97;;;30.20;52.90;;;;;;5092455;28;20436;-72
2022/07/06 02:41:11;;;;;;;24.02;3.90;;;30.30;52.90;;;;;;5092196;28;20089;-73
2022/07/06 02:43:39;;;;;;;21.48;3.13;;;30.20;53.10;;;;;;5092151;28;20027;-73
2022/07/06 02:46:05;;;;;;;26.45;3.10;;;30.10;53.20;;;;;;5092084;28;20030;-73
2022/07/06 02:48:31;;;;;;;24.85;3.53;;;30.10;53.20;;;;;;5092181;28;20449;-73
2022/07/06 02:50:58;;;;;;;32.50;3.80;;;30.10;53.20;;;;;;5092435;28;20028;-73
2022/07/06 02:53:24;;;;;;;24.92;3.63;;;30.10;53.30;;;;;;5092862;28;20024;-73
2022/07/06 02:55:51;;;;;;;19.13;3.50;;;30.10;53.70;;;;;;5092139;28;20050;-73
2022/07/06 02:58:17;;;;;;;20.98;3.67;;;30.00;53.50;;;;;;5092274;28;20027;-72
2022/07/06 03:00:43;;;;;;;34.03;4.00;;;30.00;53.80;;;;;;5092483;28;20050;-72
2022/07/06 03:03:10;;;;;;;24.67;3.08;;;30.00;53.60;;;;;;5091840;28;20020;-73
2022/07/06 03:05:36;;;;;;;32.50;4.15;;;30.10;53.50;;;;;;5091771;28;20610;-73
2022/07/06 03:08:02;;;;;;;23.65;3.58;;;30.00;53.80;;;;;;5090576;28;20082;-73
2022/07/06 03:10:28;;;;;;;23.70;3.45;;;30.00;53.70;;;;;;5091478;28;20066;-73
2022/07/06 03:12:54;;;;;;;17.83;3.70;;;30.00;53.80;;;;;;5092018;28;20028;-73
2022/07/06 03:15:20;;;;;;;19.75;3.75;;;30.00;54.00;;;;;;5092164;28;20020;-73
2022/07/06 03:17:46;;;;;;;26.60;3.40;;;30.00;54.10;;;;;;5090117;28;20070;-73
2022/07/06 03:20:12;;;;;;;26.98;3.75;;;30.00;54.00;;;;;;5091817;28;20028;-73
2022/07/06 03:22:38;;;;;;;24.25;3.63;;;30.00;54.00;;;;;;5092718;28;20062;-73
2022/07/06 03:25:04;;;;;;;19.67;3.53;;;30.10;53.90;;;;;;5092605;28;20028;-72
2022/07/06 03:27:30;;;;;;;;;;;30.10;53.90;;;;;;5092835;28;20056;-73
2022/07/06 03:30:03;;;;;;;21.05;3.10;;;30.10;54.10;;;;;;5092027;28;19934;-73
2022/07/06 03:32:31;;;;;;;20.92;3.72;;;30.00;54.10;;;;;;5092431;28;20030;-73
2022/07/06 03:34:57;;;;;;;25.80;3.65;;;30.00;54.40;;;;;;5092427;28;20396;-73
2022/07/06 03:37:23;;;;;;;23.77;3.25;;;30.00;54.30;;;;;;5092177;28;20032;-72
2022/07/06 03:39:49;;;;;;;23.05;3.45;;;30.00;54.40;;;;;;5090637;28;20466;-73
2022/07/06 03:42:15;;;;;;;30.08;3.47;;;29.90;54.50;;;;;;5092563;28;20024;-73
2022/07/06 03:44:41;;;;;;;19.98;3.30;;;30.00;54.60;;;;;;5091967;28;20024;-73
2022/07/06 03:47:07;;;;;;;24.13;3.60;;;29.90;54.50;;;;;;5092408;28;20032;-73
2022/07/06 03:49:33;;;;;;;28.27;3.88;;;30.00;54.70;;;;;;5090393;28;20118;-72
2022/07/06 03:51:59;;;;;;;16.67;2.83;;;29.90;54.50;;;;;;5091840;28;20062;-73
2022/07/06 03:54:25;;;;;;;25.02;3.83;;;29.90;54.80;;;;;;5091918;28;20467;-72
2022/07/06 03:56:51;;;;;;;28.30;3.60;;;29.90;54.80;;;;;;5091759;28;20070;-73
2022/07/06 03:59:17;;;;;;;18.92;3.80;;;29.90;54.80;;;;;;5124547;28;20506;-73
2022/07/06 04:01:45;;;;;;;22.33;3.95;;;29.90;55.00;;;;;;5092305;28;20036;-73
2022/07/06 04:04:11;;;;;;;24.25;3.40;;;29.80;55.30;;;;;;5124408;28;20024;-73
2022/07/06 04:06:38;;;;;;;23.13;3.70;;;29.80;55.30;;;;;;5091740;28;20028;-73
2022/07/06 04:09:04;;;;;;;21.02;3.53;;;29.80;56.20;;;;;;5090294;28;20107;-72
2022/07/06 04:11:30;;;;;;;25.65;3.70;;;29.80;55.40;;;;;;5091841;28;20129;-73
2022/07/06 04:13:56;;;;;;;31.67;4.30;;;29.80;55.40;;;;;;5091950;28;20025;-73
2022/07/06 04:16:22;;;;;;;18.98;3.00;;;29.90;55.50;;;;;;5091815;28;20016;-73
2022/07/06 04:18:48;;;;;;;28.27;3.60;;;30.00;55.30;;;;;;5092681;28;20025;-73
2022/07/06 04:21:14;;;;;;;28.67;4.07;;;30.00;55.40;;;;;;5094198;28;20420;-73
2022/07/06 04:23:40;;;;;;;27.70;3.67;;;30.00;55.20;;;;;;5096696;28;20024;-73
2022/07/06 04:26:06;;;;;;;27.23;3.85;;;30.10;55.40;;;;;;5096723;28;20103;-73
2022/07/06 04:28:32;;;;;;;29.38;3.60;;;30.10;55.30;;;;;;5096703;28;20036;-73
2022/07/06 04:30:58;;;;;;;23.65;2.78;;;30.20;55.40;;;;;;5096155;28;20383;-73
2022/07/06 04:33:24;;;;;;;26.52;4.28;;;30.20;55.30;;;;;;5096081;28;20057;-73
2022/07/06 04:35:50;;;;;;;32.53;3.63;;;30.40;55.20;;;;;;5095880;28;20380;-71
2022/07/06 04:38:17;;;;;;;29.08;4.00;;;30.40;55.40;;;;;;5096172;28;20028;-72
2022/07/06 04:40:42;;;;;;;;;;;30.40;55.30;;;;;;5096669;28;20066;-73
2022/07/06 04:43:09;;;;;;;20.98;3.67;;;30.50;55.50;;;;;;5096372;28;19904;-74
2022/07/06 04:45:35;;;;;;;26.45;3.65;;;30.70;55.30;;;;;;5096821;28;20073;-72
2022/07/06 04:48:01;;;;;;;24.23;3.55;;;30.80;55.30;;;;;;5096306;28;20105;-73
2022/07/06 04:50:27;;;;;;;29.10;3.63;;;30.80;55.30;;;;;;5096397;28;20028;-72
2022/07/06 04:52:53;;;;;;;26.17;3.78;;;30.80;55.20;;;;;;5096186;28;20428;-73
2022/07/06 04:55:19;;;;;;;30.27;3.22;;;30.90;54.80;;;;;;5096284;28;20025;-73
2022/07/06 04:57:45;;;;;;;21.48;3.38;;;30.90;55.00;;;;;;5128512;27;20020;-73
2022/07/06 05:00:12;;;;;;;22.33;3.78;;;31.00;54.80;;;;;;5094439;28;20043;-73
2022/07/06 05:02:38;;;;;;;28.23;4.05;;;31.00;54.90;;;;;;5095946;28;20023;-72
2022/07/06 05:05:04;;;;;;;34.75;3.63;;;31.20;54.70;;;;;;5095920;28;20028;-73
2022/07/06 05:07:33;;;;;;;26.05;4.00;;;31.60;54.40;;;;;;5095725;28;20127;-73
2022/07/06 05:09:59;;;;;;;20.75;3.25;;;32.40;53.20;;;;;;5095502;28;20135;-73
2022/07/06 05:12:25;;;;;;;24.33;3.25;;;33.20;52.30;;;;;;5095326;28;20066;-73
2022/07/06 05:14:51;;;;;;;;;;;34.00;51.00;;;;;;5095892;28;20028;-73
2022/07/06 05:17:17;;;;;;;21.35;3.47;;;34.70;49.80;;;;;;5094834;28;19910;-74
2022/07/06 05:19:43;;;;;;;;;;;35.20;49.20;;;;;;5095626;28;20032;-74
2022/07/06 05:22:09;;;;;;;23.67;3.35;;;35.30;49.00;;;;;;5094674;28;19904;-73
2022/07/06 05:24:35;;;;;;;18.80;3.55;;;35.70;48.80;;;;;;5092891;28;20036;-73
2022/07/06 05:27:01;;;;;;;;;;;36.20;48.20;;;;;;5095016;28;20045;-74
2022/07/06 05:29:27;;;;;;;18.58;3.30;;;36.20;47.70;;;;;;5094674;28;19986;-73
2022/07/06 05:31:53;;;;;;;18.67;3.50;;;36.10;47.60;;;;;;5127699;27;20134;-74
2022/07/06 05:34:19;;;;;;;28.73;3.30;;;36.60;47.20;;;;;;5095160;28;20569;-74
2022/07/06 05:36:45;;;;;;;18.98;3.42;;;36.90;47.30;;;;;;5095099;28;20096;-73
2022/07/06 05:39:11;;;;;;;28.33;3.63;;;37.90;46.20;;;;;;5094550;28;20032;-72
2022/07/06 05:41:37;;;;;;;21.27;2.97;;;38.00;45.80;;;;;;5094663;28;20023;-73
2022/07/06 05:44:04;;;;;;;21.98;3.03;;;38.60;45.20;;;;;;5094267;28;20024;-72
2022/07/06 05:46:30;;;;;;;18.08;3.35;;;39.40;44.30;;;;;;5094470;28;20024;-74
2022/07/06 05:51:55;;;;;;;26.00;3.22;;;39.60;44.30;;;;;;5093840;28;20058;-73
2022/07/06 05:54:21;;;;;;;28.95;3.13;;;40.10;43.30;;;;;;5093453;28;20038;-73
2022/07/06 05:56:47;;;;;;;27.33;3.78;;;40.40;43.30;;;;;;5093957;28;20028;-73
2022/07/06 05:59:13;;;;;;;19.15;2.78;;;40.70;42.40;;;;;;5093440;28;20106;-73
2022/07/06 06:01:40;;;;;;;23.85;3.55;;;40.40;42.60;;;;;;5093924;28;20403;-74
2022/07/06 06:04:07;;;;;;;21.02;3.25;;;40.40;42.60;;;;;;5093576;28;20027;-74
2022/07/06 06:06:33;;;;;;;23.30;3.28;;;40.90;42.20;;;;;;5093998;28;20026;-74
2022/07/06 06:08:59;;;;;;;24.25;3.63;;;41.30;42.10;;;;;;5093284;28;20020;-74
2022/07/06 06:11:25;;;;;;;24.63;3.28;;;41.30;41.40;;;;;;5093390;28;20054;-74
2022/07/06 06:13:51;;;;;;;26.20;3.33;;;41.60;41.60;;;;;;5092009;28;20020;-74
2022/07/06 06:16:17;;;;;;;22.50;3.50;;;41.60;41.10;;;;;;5092249;28;20059;-74
2022/07/06 06:18:43;;;;;;;19.48;3.20;;;42.20;41.10;;;;;;5126931;27;20032;-74
2022/07/06 06:21:10;;;;;;;22.58;3.47;;;42.20;40.70;;;;;;5094375;28;20123;-74
2022/07/06 06:23:36;;;;;;;30.35;3.22;;;42.90;40.70;;;;;;5094411;28;20016;-74
2022/07/06 06:26:02;;;;;;;17.25;2.88;;;43.10;40.10;;;;;;5094620;28;20114;-74
2022/07/06 06:28:28;;;;;;;30.80;3.55;;;43.70;39.30;;;;;;5094029;28;20027;-74
2022/07/06 06:30:54;;;;;;;22.85;3.17;;;44.00;39.40;;;;;;5093914;28;20021;-74
2022/07/06 06:33:21;;;;;;;27.23;3.65;;;43.70;39.00;;;;;;5094196;28;20047;-75
2022/07/06 06:35:54;;;;;;;23.98;3.10;;;43.90;38.90;;;;;;5093947;28;20024;-74
2022/07/06 06:38:21;;;;;;;19.67;3.42;;;43.90;39.10;;;;;;5093969;28;20103;-74
2022/07/06 06:40:48;;;;;;;19.15;3.10;;;44.70;38.10;;;;;;5092378;28;20482;-74
2022/07/06 06:43:14;;;;;;;17.48;2.90;;;45.20;37.70;;;;;;5093331;28;20028;-73
2022/07/06 06:45:40;;;;;;;18.35;3.10;;;45.60;36.90;;;;;;5093269;28;20024;-74
2022/07/06 06:48:06;;;;;;;22.85;3.50;;;45.50;37.20;;;;;;5094137;28;20368;-74
2022/07/06 06:50:32;;;;;;;19.67;3.15;;;46.30;37.20;;;;;;5126355;27;20039;-74
2022/07/06 06:52:59;;;;;;;18.38;3.17;;;46.80;36.50;;;;;;5093515;28;20026;-74
2022/07/06 06:55:25;;;;;;;22.75;3.58;;;47.20;35.80;;;;;;5093961;28;20347;-74
2022/07/06 06:58:00;;;;;;;19.73;3.00;;;46.70;35.60;;;;;;5093937;28;20108;-74
2022/07/06 07:00:26;;;;;;;22.13;3.05;;;46.80;36.40;;;;;;5093677;28;20031;-74
2022/07/06 07:02:52;;;;;;;23.65;3.03;;;46.70;35.10;;;;;;5093512;28;20062;-74
2022/07/06 07:05:18;;;;;;;20.58;2.95;;;46.80;35.70;;;;;;5093499;28;20020;-74
2022/07/06 07:07:44;;;;;;;21.73;2.90;;;47.20;34.70;;;;;;5093383;28;20024;-73
2022/07/06 07:10:11;;;;;;;13.07;2.80;;;47.00;34.60;;;;;;5091792;28;20142;-75
2022/07/06 07:12:46;;;;;;;15.43;2.95;;;47.20;34.90;;;;;;5093713;28;20024;-74
2022/07/06 07:15:13;;;;;;;20.80;2.88;;;46.40;35.10;;;;;;5091670;28;20026;-74
2022/07/06 07:17:40;;;;;;;20.40;2.90;;;45.00;35.40;;;;;;5091760;28;20033;-74
2022/07/06 07:20:07;;;;;;;19.60;3.00;;;44.70;35.50;;;;;;5093551;28;20063;-74
2022/07/06 07:22:33;;;;;;;21.33;3.20;;;44.20;36.10;;;;;;5093180;28;20036;-74
2022/07/06 07:24:59;;;;;;;18.42;3.00;;;44.00;36.40;;;;;;5091604;28;20016;-74
2022/07/06 07:27:25;;;;;;;21.90;3.30;;;43.90;36.70;;;;;;5091498;28;20080;-74
2022/07/06 07:29:53;;;;;;;22.67;3.10;;;43.80;36.50;;;;;;5093024;28;20020;-74
2022/07/06 07:32:19;;;;;;;19.80;3.25;;;43.80;36.70;;;;;;5092845;28;20113;-74
2022/07/06 07:34:45;;;;;;;17.80;2.97;;;43.70;36.80;;;;;;5091543;28;20121;-74
2022/07/06 07:37:12;;;;;;;15.38;2.80;;;43.70;36.40;;;;;;5093207;28;20028;-74
2022/07/06 07:39:38;;;;;;;17.40;2.75;;;42.60;37.10;;;;;;5092983;28;20111;-74
2022/07/06 07:42:04;;;;;;;13.55;2.60;;;42.60;37.20;;;;;;5092585;28;20103;-74
2022/07/06 07:44:30;;;;;;;26.23;3.22;;;42.60;37.00;;;;;;5092825;28;20023;-74
2022/07/06 07:46:56;;;;;;;23.10;3.00;;;42.80;37.60;;;;;;5093367;28;20030;-74
2022/07/06 07:49:22;;;;;;;17.00;2.67;;;42.80;37.90;;;;;;5093046;28;20103;-74
2022/07/06 07:51:49;;;;;;;17.35;3.20;;;42.20;37.20;;;;;;5092189;28;20135;-74
2022/07/06 07:54:15;;;;;;;17.15;2.60;;;42.10;37.30;;;;;;5091777;28;20084;-74
2022/07/06 07:56:41;;;;;;;19.98;2.72;;;42.30;37.10;;;;;;5091758;28;20028;-74
2022/07/06 07:59:08;;;;;;;13.63;2.80;;;41.90;36.40;;;;;;5092069;28;20058;-74
2022/07/06 08:01:34;;;;;;;15.45;2.22;;;41.60;36.90;;;;;;5091766;28;20047;-74
2022/07/06 08:04:00;;;;;;;13.43;2.38;;;41.30;36.40;;;;;;5091853;28;20051;-73
2022/07/06 08:06:26;;;;;;;17.25;2.95;;;41.00;37.00;;;;;;5092033;28;20032;-74
2022/07/06 08:08:53;;;;;;;20.20;2.70;;;40.90;37.60;;;;;;5092064;28;20418;-74
2022/07/06 08:11:19;;;;;;;12.73;2.60;;;41.10;37.20;;;;;;5091512;28;20058;-74
2022/07/06 08:13:46;;;;;;;22.13;3.03;;;40.80;36.80;;;;;;5091833;28;20020;-73
2022/07/06 08:16:12;;;;;;;15.48;2.45;;;40.70;36.60;;;;;;5091790;28;20059;-74
2022/07/06 08:18:38;;;;;;;15.10;2.60;;;40.60;36.60;;;;;;5092929;28;20099;-73
2022/07/06 08:21:05;;;;;;;21.20;2.63;;;40.60;37.50;;;;;;5092486;28;20032;-73
2022/07/06 08:23:33;;;;;;;15.05;2.47;;;40.70;36.80;;;;;;5092533;28;20103;-73
2022/07/06 08:25:59;;;;;;;18.02;2.38;;;40.50;37.00;;;;;;5092110;28;20016;-73
2022/07/06 08:28:27;;;;;;;12.65;2.67;;;40.50;37.10;;;;;;5092101;28;20024;-73
2022/07/06 08:30:54;;;;;;;14.60;2.47;;;40.30;36.90;;;;;;5091682;28;20538;-73
2022/07/06 08:33:21;;;;;;;13.32;2.40;;;39.70;37.90;;;;;;5091591;28;20036;-73
2022/07/06 08:35:47;;;;;;;15.40;2.85;;;39.70;37.80;;;;;;5091816;28;20063;-73
2022/07/06 08:38:13;;;;;;;14.68;2.42;;;40.00;37.50;;;;;;5092341;28;20423;-73
2022/07/06 08:40:41;;;;;;;17.50;3.05;;;40.10;37.50;;;;;;5092138;28;20040;-73
2022/07/06 08:43:07;;;;;;;19.80;2.80;;;40.40;38.00;;;;;;5091835;28;20032;-73
2022/07/06 08:45:35;;;;;;;18.83;2.70;;;40.70;38.80;;;;;;5092157;28;20024;-74
2022/07/06 08:48:06;;;;;;;19.50;3.80;;;40.90;38.80;;;;;;5090588;28;20454;-75
2022/07/06 08:50:33;;;;;;;20.10;3.28;;;41.20;39.00;;;;;;5092095;28;20032;-76
2022/07/06 08:53:00;;;;;;;18.95;2.65;;;41.10;38.80;;;;;;5091665;28;20123;-74
2022/07/06 08:55:27;;;;;;;14.18;3.15;;;41.30;38.40;;;;;;5091368;28;20028;-74
2022/07/06 08:57:55;;;;;;;17.52;3.70;;;41.30;38.60;;;;;;5089891;28;20036;-74
2022/07/06 09:00:22;;;;;;;18.80;3.22;;;41.20;38.90;;;;;;5091760;28;20040;-74
2022/07/06 09:02:50;;;;;;;21.98;3.25;;;41.30;38.60;;;;;;5107006;28;20073;-74
2022/07/06 09:05:17;;;;;;;19.08;2.88;;;40.90;38.10;;;;;;5091579;28;20070;-74
2022/07/06 09:07:48;;;;;;;17.70;3.10;;;40.80;38.70;;;;;;5093310;28;20024;-73
2022/07/06 09:10:16;;;;;;;18.05;2.70;;;41.00;38.70;;;;;;5094584;28;20430;-73
2022/07/06 09:12:43;;;;;;;20.13;3.63;;;41.00;38.60;;;;;;5093671;28;20379;-73
2022/07/06 09:15:09;;;;;;;21.42;3.00;;;41.20;38.80;;;;;;5094769;28;20201;-74
2022/07/06 09:17:41;;;;;;;28.95;3.70;;;41.30;38.30;;;;;;5094621;28;20126;-74
2022/07/06 09:20:12;;;;;;;16.02;2.63;;;41.30;38.20;;;;;;5094925;28;20032;-73
2022/07/06 09:22:38;;;;;;;17.63;2.92;;;41.30;38.40;;;;;;5095217;28;20074;-73
2022/07/06 09:25:10;;;;;;;22.52;3.25;;;41.30;39.10;;;;;;5095230;28;20029;-75
2022/07/06 09:27:43;;;;;;;17.15;3.03;;;41.10;38.30;;;;;;5094908;28;20020;-74
2022/07/06 09:30:10;;;;;;;16.40;3.05;;;40.90;38.60;;;;;;5094452;28;20031;-74
2022/07/06 09:32:57;;;;;;;17.77;3.08;;;40.70;38.50;;;;;;5094238;28;20414;-74
2022/07/06 09:35:28;;;;;;;12.52;2.75;;;40.40;38.70;;;;;;5092778;28;20027;-74
2022/07/06 09:38:01;;;;;;;22.75;2.92;;;40.40;39.30;;;;;;5094543;28;20031;-74
2022/07/06 09:40:30;;;;;;;14.25;2.88;;;40.40;38.90;;;;;;5094132;28;20036;-74
2022/07/06 09:43:08;;;;;;;17.83;2.80;;;40.20;38.20;;;;;;5094365;28;20012;-74
2022/07/06 09:45:36;;;;;;;19.38;2.38;;;40.30;38.40;;;;;;5094609;28;20387;-74
2022/07/06 09:48:15;;;;;;;18.85;2.88;;;40.50;37.20;;;;;;5092737;28;20525;-74
2022/07/06 09:50:46;;;;;;;16.77;2.92;;;40.50;36.90;;;;;;5092818;28;20630;-74
2022/07/06 09:53:14;;;;;;;16.40;3.05;;;40.50;37.20;;;;;;5092722;28;20020;-74
2022/07/06 09:55:47;;;;;;;12.60;1.92;;;40.50;37.60;;;;;;5094132;28;20032;-74
2022/07/06 09:58:17;;;;;;;15.73;2.67;;;40.50;36.60;;;;;;5094427;28;20385;-74
2022/07/06 10:00:45;;;;;;;13.48;2.20;;;40.50;36.80;;;;;;5094170;28;20456;-74
2022/07/06 10:03:12;;;;;;;14.35;2.25;;;40.30;36.60;;;;;;5094011;28;20055;-74
2022/07/06 10:05:40;;;;;;;12.50;2.45;;;40.30;37.00;;;;;;5094338;28;20066;-75
2022/07/06 10:08:10;;;;;;;15.80;2.42;;;40.30;37.10;;;;;;5094241;28;20517;-75
2022/07/06 10:10:39;;;;;;;10.68;2.38;;;40.30;36.70;;;;;;5093713;28;20050;-75
2022/07/06 10:13:09;;;;;;;11.75;2.88;;;40.20;36.50;;;;;;5093591;28;20061;-74
2022/07/06 10:15:37;;;;;;;14.05;2.45;;;40.00;37.40;;;;;;5093625;28;20024;-75
2022/07/06 10:18:08;;;;;;;15.23;3.17;;;39.90;37.80;;;;;;5093706;28;20069;-74
2022/07/06 10:20:37;;;;;;;15.80;2.60;;;39.90;37.60;;;;;;5093627;28;20447;-75
2022/07/06 10:23:05;;;;;;;11.90;2.28;;;39.80;37.40;;;;;;5093720;28;20016;-75
2022/07/06 10:25:33;;;;;;;14.95;2.65;;;39.90;38.00;;;;;;5093767;28;20133;-75
2022/07/06 10:28:00;;;;;;;14.20;2.30;;;39.70;39.30;;;;;;5093461;28;20375;-74
2022/07/06 10:30:28;;;;;;;17.52;2.75;;;39.50;39.50;;;;;;5091775;28;20119;-75
2022/07/06 10:32:57;;;;;;;14.95;2.50;;;39.50;40.90;;;;;;5093523;28;20055;-74
2022/07/06 10:35:24;;;;;;;17.58;2.75;;;39.30;40.10;;;;;;5093635;28;20024;-74
2022/07/06 10:38:09;;;;;;;17.42;2.25;;;39.40;41.30;;;;;;5093491;28;20543;-74
2022/07/06 10:43:22;;;;;;;16.10;2.63;;;39.30;39.40;;;;;;5093882;28;20072;-74
2022/07/06 10:46:06;;;;;;;16.27;2.42;;;39.20;40.20;;;;;;5093048;28;20032;-74
2022/07/06 10:48:40;;;;;;;18.70;2.78;;;39.00;40.60;;;;;;5093050;28;20093;-74
2022/07/06 10:51:08;;;;;;;13.60;2.20;;;39.30;41.30;;;;;;5093383;28;20031;-74
2022/07/06 10:53:37;;;;;;;16.88;3.03;;;39.40;40.50;;;;;;5092323;28;20024;-73
2022/07/06 10:56:09;;;;;;;15.48;2.33;;;39.30;40.40;;;;;;5093010;28;20041;-74
2022/07/06 10:58:46;;;;;;;15.00;2.45;;;39.40;39.10;;;;;;5092047;28;20103;-74
2022/07/06 11:01:14;;;;;;;10.90;2.30;;;39.40;38.20;;;;;;5093767;28;20100;-74
2022/07/06 11:03:42;;;;;;;13.63;2.35;;;39.50;38.50;;;;;;5093523;28;20408;-74
2022/07/06 11:06:22;;;;;;;13.70;2.22;;;39.50;38.00;;;;;;5093544;28;20114;-74
2022/07/06 11:08:56;;;;;;;12.90;2.42;;;39.50;38.20;;;;;;5093288;28;20016;-73
2022/07/06 11:11:23;;;;;;;19.52;2.13;;;39.60;38.70;;;;;;5092846;28;20055;-75
2022/07/06 11:14:09;;;;;;;12.52;2.50;;;39.80;40.70;;;;;;5093262;28;20016;-74
2022/07/06 11:16:48;;;;;;;15.23;2.45;;;39.80;41.90;;;;;;5093522;28;20093;-75
2022/07/06 11:19:23;;;;;;;19.75;3.10;;;39.70;44.20;;;;;;5093827;28;20024;-75
2022/07/06 11:21:58;;;;;;;13.85;2.47;;;39.40;47.10;;;;;;5093911;28;20061;-74
2022/07/06 11:24:29;;;;;;;21.45;3.33;;;39.20;47.60;;;;;;5093723;28;20446;-75
2022/07/06 11:26:57;;;;;;;14.20;2.53;;;39.20;48.30;;;;;;5093368;28;20024;-75
2022/07/06 11:29:25;;;;;;;14.68;2.70;;;39.20;47.60;;;;;;5092970;28;20020;-75
2022/07/06 11:31:54;;;;;;;13.52;2.40;;;39.30;47.30;;;;;;5091831;28;20483;-75
2022/07/06 11:34:29;;;;;;;16.02;2.70;;;39.30;46.30;;;;;;5093269;28;20050;-74
2022/07/06 11:37:07;;;;;;;15.10;2.35;;;39.10;45.50;;;;;;5093408;28;20039;-74
2022/07/06 11:39:35;;;;;;;19.92;2.47;;;39.00;46.00;;;;;;5093378;28;20023;-75
2022/07/06 11:42:03;;;;;;;12.13;2.35;;;39.00;43.50;;;;;;5093242;28;20537;-74
2022/07/06 11:44:30;;;;;;;11.38;2.20;;;39.10;41.50;;;;;;5093511;28;20044;-75
2022/07/06 11:46:59;;;;;;;12.85;2.40;;;39.20;41.30;;;;;;5092751;28;20024;-75
2022/07/06 11:49:25;;;;;;;15.13;2.60;;;39.30;41.10;;;;;;5092737;28;20383;-75
2022/07/06 11:51:51;;;;;;;17.58;2.40;;;39.40;41.30;;;;;;5092750;28;20020;-74
2022/07/06 11:54:20;;;;;;;14.73;2.40;;;39.50;41.60;;;;;;5092384;28;20039;-74
2022/07/06 11:56:54;;;;;;;12.15;2.10;;;39.60;41.20;;;;;;5092191;28;20047;-75
2022/07/06 11:59:25;;;;;;;11.93;2.10;;;39.70;40.30;;;;;;5091965;28;20031;-75
2022/07/06 12:02:10;;;;;;;9.93;2.20;;;39.60;39.80;;;;;;5092035;28;20031;-75
2022/07/06 12:04:41;;;;;;;8.63;2.03;;;39.50;38.30;;;;;;5092692;28;20028;-74
2022/07/06 12:07:11;;;;;;;12.48;2.05;;;39.50;38.40;;;;;;5092464;28;20111;-75
2022/07/06 12:09:40;;;;;;;16.05;2.22;;;39.60;38.50;;;;;;5092564;28;20024;-74
2022/07/06 12:12:08;;;;;;;10.80;2.40;;;39.70;37.90;;;;;;5090879;28;20114;-74
2022/07/06 12:14:36;;;;;;;9.48;2.08;;;39.70;37.20;;;;;;5091008;28;20131;-74
2022/07/06 12:17:05;;;;;;;11.68;2.33;;;39.60;36.70;;;;;;5092411;28;20020;-74
2022/07/06 12:19:31;;;;;;;10.95;2.20;;;39.50;37.30;;;;;;5091062;28;20028;-75
2022/07/06 12:21:57;;;;;;;15.40;2.70;;;39.50;37.80;;;;;;5092617;28;20035;-73
2022/07/06 12:24:30;;;;;;;13.88;2.22;;;39.60;37.40;;;;;;5092801;28;20017;-72
2022/07/06 12:26:56;;;;;;;13.68;2.40;;;39.70;37.50;;;;;;5092515;28;20039;-75
2022/07/06 12:29:23;;;;;;;8.50;1.77;;;39.70;37.20;;;;;;5092464;28;20024;-73
2022/07/06 12:31:52;;;;;;;13.30;2.63;;;39.80;37.50;;;;;;5092514;28;20106;-73
2022/07/06 12:34:24;;;;;;;15.60;2.45;;;39.60;38.00;;;;;;5092649;28;20348;-73
2022/07/06 12:37:05;;;;;;;13.27;2.35;;;39.40;37.70;;;;;;5091113;28;20476;-73
2022/07/06 12:39:31;;;;;;;13.23;2.28;;;39.60;38.50;;;;;;5092546;28;20039;-73
2022/07/06 12:42:05;;;;;;;14.32;2.40;;;39.70;38.60;;;;;;5093293;28;20027;-73
2022/07/06 12:44:31;;;;;;;10.95;2.17;;;39.50;38.90;;;;;;5096515;28;20077;-75
2022/07/06 12:47:09;;;;;;;13.82;2.88;;;39.80;39.10;;;;;;5096317;28;20024;-74
2022/07/06 12:49:38;;;;;;;12.23;2.20;;;39.70;40.30;;;;;;5096255;28;20024;-74